createdAt,value
2023-04-14T00:00:36.193Z,7.7
2023-04-14T00:01:37.705Z,7.7
2023-04-14T00:02:40.551Z,7.7
2023-04-14T00:03:43.061Z,7.7
2023-04-14T00:04:45.371Z,7.7
2023-04-14T00:05:46.998Z,7.7
2023-04-14T00:06:48.434Z,7.8
2023-04-14T00:07:50.061Z,7.7
2023-04-14T00:08:51.638Z,7.7
2023-04-14T00:09:53.183Z,7.7
2023-04-14T00:10:54.626Z,7.7
2023-04-14T00:11:56.160Z,7.7
2023-04-14T00:12:57.662Z,7.7
2023-04-14T00:13:59.240Z,7.8
2023-04-14T00:15:00.795Z,7.8
2023-04-14T00:16:02.415Z,7.8
2023-04-14T00:17:04.421Z,7.8
2023-04-14T00:18:06.674Z,7.8
2023-04-14T00:19:08.252Z,7.7
2023-04-14T00:20:09.837Z,7.7
2023-04-14T00:21:11.420Z,7.7
2023-04-14T00:22:12.828Z,7.7
2023-04-14T00:23:14.399Z,7.6
2023-04-14T00:24:15.817Z,7.6
2023-04-14T00:25:17.431Z,7.6
2023-04-14T00:26:18.836Z,7.5
2023-04-14T00:27:20.338Z,7.5
2023-04-14T00:28:21.805Z,7.5
2023-04-14T00:29:23.416Z,7.4
2023-04-14T00:30:24.973Z,7.4
2023-04-14T00:31:26.892Z,7.4
2023-04-14T00:32:29.052Z,7.4
2023-04-14T00:33:30.701Z,7.4
2023-04-14T00:34:32.109Z,7.4
2023-04-14T00:35:33.660Z,7.4
2023-04-14T00:36:35.050Z,7.4
2023-04-14T00:37:36.597Z,7.3
2023-04-14T00:38:38.112Z,7.3
2023-04-14T00:39:39.647Z,7.2
2023-04-14T00:40:40.953Z,7.2
2023-04-14T00:41:42.473Z,7.2
2023-04-14T00:42:43.803Z,7.1
2023-04-14T00:43:45.306Z,7.1
2023-04-14T00:44:46.890Z,7.1
2023-04-14T00:45:48.256Z,7.1
2023-04-14T00:46:50.183Z,7.1
2023-04-14T00:47:52.156Z,7.1
2023-04-14T00:48:53.736Z,7.1
2023-04-14T00:49:55.108Z,7.1
2023-04-14T00:50:56.607Z,7.1
2023-04-14T00:51:58.174Z,7.1
2023-04-14T00:52:59.451Z,7.1
2023-04-14T00:54:00.852Z,7.1
2023-04-14T00:55:02.527Z,7.1
2023-04-14T00:56:04.039Z,7.1
2023-04-14T00:57:05.457Z,7.1
2023-04-14T00:58:06.997Z,7.1
2023-04-14T00:59:08.510Z,7.1
2023-04-14T01:00:10.063Z,7.1
2023-04-14T01:01:11.579Z,7.1
2023-04-14T01:02:13.925Z,7.1
2023-04-14T01:03:16.601Z,7.2
2023-04-14T01:04:18.726Z,7.2
2023-04-14T01:05:20.636Z,7.2
2023-04-14T01:06:22.114Z,7.2
2023-04-14T01:07:23.688Z,7.2
2023-04-14T01:08:25.188Z,7.1
2023-04-14T01:09:26.770Z,7.2
2023-04-14T01:10:28.153Z,7.1
2023-04-14T01:11:29.644Z,7.1
2023-04-14T01:12:31.146Z,7.2
2023-04-14T01:13:32.501Z,7.1
2023-04-14T01:14:34.013Z,7.1
2023-04-14T01:15:35.554Z,7.1
2023-04-14T01:16:37.594Z,7.1
2023-04-14T01:17:39.589Z,7.1
2023-04-14T01:18:41.264Z,7.1
2023-04-14T01:19:42.845Z,7.1
2023-04-14T01:20:44.410Z,7.1
2023-04-14T01:21:45.903Z,7.1
2023-04-14T01:22:47.446Z,7.1
2023-04-14T01:23:49.102Z,7.1
2023-04-14T01:24:50.741Z,7.1
2023-04-14T01:25:52.261Z,7.1
2023-04-14T01:26:53.720Z,7.1
2023-04-14T01:27:55.239Z,7.1
2023-04-14T01:28:56.775Z,7.1
2023-04-14T01:29:58.164Z,7.1
2023-04-14T01:30:59.749Z,7.1
2023-04-14T01:32:01.662Z,7.1
2023-04-14T01:33:03.641Z,7.1
2023-04-14T01:34:05.127Z,7.1
2023-04-14T01:35:06.759Z,7.1
2023-04-14T01:36:08.306Z,7.1
2023-04-14T01:37:09.829Z,7.1
2023-04-14T01:38:11.323Z,7.1
2023-04-14T01:39:12.851Z,7.1
2023-04-14T01:40:14.441Z,7.1
2023-04-14T01:41:15.923Z,7.1
2023-04-14T01:42:17.297Z,7.1
2023-04-14T01:43:18.701Z,7.1
2023-04-14T01:44:20.073Z,7.2
2023-04-14T01:45:21.621Z,7.2
2023-04-14T01:46:23.730Z,7.2
2023-04-14T01:47:25.488Z,7.2
2023-04-14T01:48:27.082Z,7.2
2023-04-14T01:49:29.041Z,7.2
2023-04-14T01:50:30.503Z,7.2
2023-04-14T01:51:32.043Z,7.3
2023-04-14T01:52:33.566Z,7.3
2023-04-14T01:53:35.244Z,7.3
2023-04-14T01:54:36.818Z,7.4
2023-04-14T01:55:38.337Z,7.5
2023-04-14T01:56:39.943Z,7.5
2023-04-14T01:57:41.357Z,7.6
2023-04-14T01:58:42.945Z,7.7
2023-04-14T01:59:44.469Z,7.8
2023-04-14T02:00:46.146Z,7.8
2023-04-14T02:01:48.053Z,7.9
2023-04-14T02:02:50.705Z,7.9
2023-04-14T02:03:53.119Z,7.7
2023-04-14T02:04:54.790Z,7.8
2023-04-14T02:05:56.250Z,7.9
2023-04-14T02:06:57.780Z,7.9
2023-04-14T02:07:59.173Z,7.9
2023-04-14T02:09:02.671Z,7.3
2023-04-14T02:10:04.373Z,7.4
2023-04-14T02:11:05.885Z,7.6
2023-04-14T02:12:07.277Z,7.8
2023-04-14T02:13:08.919Z,7.9
2023-04-14T02:14:10.307Z,7.9
2023-04-14T02:15:11.840Z,7.9
2023-04-14T02:16:13.488Z,7.9
2023-04-14T02:17:15.061Z,7.6
2023-04-14T02:18:16.563Z,7.7
2023-04-14T02:19:18.120Z,7.8
2023-04-14T02:20:19.565Z,7.9
2023-04-14T02:21:21.120Z,7.9
2023-04-14T02:22:22.652Z,7.9
2023-04-14T02:23:24.162Z,7.7
2023-04-14T02:24:25.796Z,7.8
2023-04-14T02:25:27.185Z,7.8
2023-04-14T02:26:28.512Z,7.2
2023-04-14T02:27:29.932Z,7.3
2023-04-14T02:28:31.386Z,7.3
2023-04-14T02:29:32.938Z,7.3
2023-04-14T02:30:34.826Z,7.2
2023-04-14T02:31:36.352Z,7.2
2023-04-14T02:32:37.957Z,7.1
2023-04-14T02:33:39.506Z,7.1
2023-04-14T02:34:41.094Z,7.1
2023-04-14T02:35:42.672Z,7.1
2023-04-14T02:36:44.250Z,7.1
2023-04-14T02:37:45.658Z,7.1
2023-04-14T02:38:47.128Z,7.1
2023-04-14T02:39:48.261Z,7.1
2023-04-14T02:40:49.757Z,7.1
2023-04-14T02:41:51.126Z,7.1
2023-04-14T02:42:52.716Z,7.1
2023-04-14T02:43:54.221Z,7.1
2023-04-14T02:44:55.591Z,7.1
2023-04-14T02:45:57.295Z,7.1
2023-04-14T02:46:58.590Z,7.1
2023-04-14T02:48:00.392Z,7.1
2023-04-14T02:49:03.105Z,7.1
2023-04-14T02:50:04.666Z,7.1
2023-04-14T02:51:06.224Z,7.1
2023-04-14T02:52:07.824Z,7.1
2023-04-14T02:53:09.143Z,7.2
2023-04-14T02:54:10.391Z,7.2
2023-04-14T02:55:11.886Z,7.2
2023-04-14T02:56:13.482Z,7.2
2023-04-14T02:57:15.045Z,7.2
2023-04-14T02:58:16.560Z,7.2
2023-04-14T02:59:18.090Z,7.2
2023-04-14T03:00:19.505Z,7.2
2023-04-14T03:01:21.224Z,7.3
2023-04-14T03:02:23.368Z,7.4
2023-04-14T03:03:25.233Z,7.4
2023-04-14T03:04:27.073Z,7.5
2023-04-14T03:05:28.406Z,7.6
2023-04-14T03:06:29.966Z,7.7
2023-04-14T03:07:31.578Z,7.8
2023-04-14T03:08:32.937Z,7.9
2023-04-14T03:09:34.446Z,7.9
2023-04-14T03:10:35.950Z,7.9
2023-04-14T03:11:37.464Z,7.9
2023-04-14T03:12:38.853Z,7.9
2023-04-14T03:13:40.345Z,7.9
2023-04-14T03:14:41.866Z,7.9
2023-04-14T03:15:43.630Z,7.9
2023-04-14T03:16:45.052Z,7.9
2023-04-14T03:17:46.878Z,7.9
2023-04-14T03:18:48.458Z,7.9
2023-04-14T03:19:49.971Z,7.9
2023-04-14T03:20:51.528Z,7.9
2023-04-14T03:21:53.113Z,7.9
2023-04-14T03:22:54.783Z,7.9
2023-04-14T03:23:56.363Z,7.9
2023-04-14T03:24:57.878Z,7.9
2023-04-14T03:25:59.520Z,7.8
2023-04-14T03:27:00.904Z,7.9
2023-04-14T03:28:02.330Z,7.2
2023-04-14T03:29:04.206Z,7.3
2023-04-14T03:30:05.682Z,7.4
2023-04-14T03:31:07.747Z,7.5
2023-04-14T03:32:09.348Z,7.5
2023-04-14T03:33:10.590Z,7.6
2023-04-14T03:34:11.990Z,7.7
2023-04-14T03:35:13.563Z,7.7
2023-04-14T03:36:15.128Z,7.7
2023-04-14T03:37:16.545Z,7.8
2023-04-14T03:38:18.104Z,7.8
2023-04-14T03:39:19.625Z,7.8
2023-04-14T03:40:21.020Z,7.9
2023-04-14T03:41:22.584Z,7.9
2023-04-14T03:42:24.093Z,7.9
2023-04-14T03:43:26.285Z,7.9
2023-04-14T03:44:27.939Z,7.9
2023-04-14T03:45:31.736Z,7.9
2023-04-14T03:46:36.484Z,7.9
2023-04-14T03:47:38.740Z,7.9
2023-04-14T03:48:40.184Z,7.9
2023-04-14T03:49:41.595Z,7.9
2023-04-14T03:50:43.178Z,7.9
2023-04-14T03:51:44.723Z,7.9
2023-04-14T03:52:46.277Z,7.9
2023-04-14T03:53:47.897Z,7.9
2023-04-14T03:54:49.295Z,7.9
2023-04-14T03:55:50.917Z,7.9
2023-04-14T03:56:52.469Z,7.9
2023-04-14T03:57:53.970Z,7.8
2023-04-14T03:58:55.214Z,7.8
2023-04-14T03:59:56.622Z,7.8
2023-04-14T04:00:58.126Z,7.8
2023-04-14T04:02:00.340Z,7.8
2023-04-14T04:03:03.525Z,7.8
2023-04-14T04:04:05.687Z,7.8
2023-04-14T04:05:07.729Z,7.9
2023-04-14T04:06:09.305Z,7.9
2023-04-14T04:07:10.900Z,7.8
2023-04-14T04:08:12.443Z,7.8
2023-04-14T04:09:14.032Z,7.8
2023-04-14T04:10:15.458Z,7.8
2023-04-14T04:11:17.020Z,7.8
2023-04-14T04:12:18.526Z,7.8
2023-04-14T04:13:20.099Z,7.8
2023-04-14T04:14:21.672Z,7.8
2023-04-14T04:15:23.271Z,7.8
2023-04-14T04:16:24.925Z,7.7
2023-04-14T04:17:26.623Z,7.7
2023-04-14T04:18:28.222Z,7.7
2023-04-14T04:19:29.765Z,7.7
2023-04-14T04:20:31.391Z,7.7
2023-04-14T04:21:32.688Z,7.8
2023-04-14T04:22:34.333Z,7.8
2023-04-14T04:23:35.817Z,7.8
2023-04-14T04:24:37.419Z,7.8
2023-04-14T04:25:38.929Z,7.8
2023-04-14T04:26:40.255Z,7.8
2023-04-14T04:27:41.554Z,7.8
2023-04-14T04:28:43.082Z,7.7
2023-04-14T04:29:44.499Z,7.6
2023-04-14T04:30:45.938Z,7.5
2023-04-14T04:31:47.779Z,7.3
2023-04-14T04:32:49.651Z,7.2
2023-04-14T04:33:51.299Z,7.1
2023-04-14T04:34:52.726Z,7.1
2023-04-14T04:35:54.216Z,7.1
2023-04-14T04:36:55.490Z,7.1
2023-04-14T04:37:56.938Z,7.1
2023-04-14T04:38:58.755Z,7.1
2023-04-14T04:40:00.573Z,7.1
2023-04-14T04:41:02.236Z,7.1
2023-04-14T04:42:03.810Z,7.1
2023-04-14T04:43:05.302Z,7.1
2023-04-14T04:44:06.848Z,7.1
2023-04-14T04:45:08.524Z,7.1
2023-04-14T04:46:10.406Z,7.1
2023-04-14T04:47:11.976Z,7.1
2023-04-14T04:48:13.477Z,7.1
2023-04-14T04:49:14.966Z,7.1
2023-04-14T04:50:20.067Z,7.1
2023-04-14T04:51:21.628Z,7.1
2023-04-14T04:52:23.127Z,7.1
2023-04-14T04:53:24.677Z,7.1
2023-04-14T04:54:26.259Z,7.2
2023-04-14T04:55:27.707Z,7.2
2023-04-14T04:56:29.112Z,7.2
2023-04-14T04:57:30.673Z,7.2
2023-04-14T04:58:32.538Z,7.2
2023-04-14T04:59:37.943Z,7.3
2023-04-14T05:00:39.676Z,7.3
2023-04-14T05:01:41.541Z,7.4
2023-04-14T05:02:43.502Z,7.4
2023-04-14T05:03:45.085Z,7.5
2023-04-14T05:04:46.743Z,7.6
2023-04-14T05:05:48.321Z,7.8
2023-04-14T05:06:49.769Z,7.9
2023-04-14T05:07:51.304Z,7.9
2023-04-14T05:08:52.668Z,7.4
2023-04-14T05:09:54.044Z,7.6
2023-04-14T05:10:55.690Z,7.7
2023-04-14T05:11:57.229Z,7.8
2023-04-14T05:12:58.706Z,7.9
2023-04-14T05:14:00.196Z,7.9
2023-04-14T05:15:01.521Z,7.3
2023-04-14T05:16:05.400Z,7.4
2023-04-14T06:07:14.989Z,7.9
2023-04-14T06:08:16.524Z,7.9
2023-04-14T06:09:18.053Z,7.9
2023-04-14T06:10:19.618Z,7.9
2023-04-14T06:11:21.158Z,7.9
2023-04-14T06:12:22.582Z,7.9
2023-04-14T06:13:24.170Z,7.9
2023-04-14T06:14:25.734Z,7.9
2023-04-14T06:15:27.871Z,7.9
2023-04-14T06:16:29.519Z,7.9
2023-04-14T06:17:31.318Z,7.8
2023-04-14T06:18:32.887Z,7.7
2023-04-14T06:19:34.288Z,7.6
2023-04-14T06:20:35.931Z,7.5
2023-04-14T06:21:37.336Z,7.4
2023-04-14T06:22:38.886Z,7.2
2023-04-14T06:23:40.326Z,7.1
2023-04-14T06:24:41.845Z,7.1
2023-04-14T06:25:43.275Z,7.1
2023-04-14T06:26:44.846Z,7.1
2023-04-14T06:27:46.546Z,7.1
2023-04-14T06:28:48.094Z,7.1
2023-04-14T06:29:49.623Z,7.1
2023-04-14T06:30:51.115Z,7.1
2023-04-14T06:31:53.085Z,7.1
2023-04-14T06:32:55.602Z,7.1
2023-04-14T06:33:57.016Z,7.1
2023-04-14T06:34:58.289Z,7.1
2023-04-14T06:35:59.833Z,7.1
2023-04-14T06:37:01.134Z,7.1
2023-04-14T06:38:02.980Z,7.2
2023-04-14T06:39:05.033Z,7.1
2023-04-14T06:40:06.568Z,7.2
2023-04-14T06:41:08.129Z,7.2
2023-04-14T06:42:09.575Z,7.2
2023-04-14T06:43:11.166Z,7.2
2023-04-14T06:44:12.733Z,7.2
2023-04-14T06:45:14.314Z,7.2
2023-04-14T06:46:16.088Z,7.3
2023-04-14T06:47:17.625Z,7.3
2023-04-14T06:48:19.182Z,7.4
2023-04-14T06:49:20.611Z,7.4
2023-04-14T06:50:22.186Z,7.5
2023-04-14T06:51:23.649Z,7.6
2023-04-14T06:52:25.201Z,7.7
2023-04-14T06:53:26.824Z,7.8
2023-04-14T06:54:28.358Z,7.9
2023-04-14T06:55:29.833Z,7.9
2023-04-14T06:56:31.412Z,7.9
2023-04-14T06:57:32.860Z,7.9
2023-04-14T06:58:34.723Z,7.9
2023-04-14T06:59:36.303Z,7.9
2023-04-14T07:00:37.764Z,7.9
2023-04-14T07:01:39.863Z,7.9
2023-04-14T07:02:42.252Z,7.9
2023-04-14T07:03:43.931Z,7.9
2023-04-14T07:04:45.795Z,7.9
2023-04-14T07:05:47.649Z,7.9
2023-04-14T07:06:49.283Z,7.9
2023-04-14T07:07:51.033Z,7.9
2023-04-14T07:08:52.608Z,7.2
2023-04-14T07:09:54.565Z,7.3
2023-04-14T07:10:56.143Z,7.3
2023-04-14T07:11:57.755Z,7.3
2023-04-14T07:12:59.391Z,7.3
2023-04-14T07:14:03.258Z,7.4
2023-04-14T07:15:05.236Z,7.4
2023-04-14T07:16:07.199Z,7.4
2023-04-14T07:17:08.846Z,7.4
2023-04-14T07:18:10.830Z,7.5
2023-04-14T07:19:12.271Z,7.5
2023-04-14T07:20:13.804Z,7.6
2023-04-14T07:21:14.997Z,7.6
2023-04-14T07:22:16.566Z,7.6
2023-04-14T07:23:18.032Z,7.7
2023-04-14T07:24:19.203Z,7.7
2023-04-14T07:25:20.851Z,7.7
2023-04-14T07:26:22.379Z,7.7
2023-04-14T07:27:23.974Z,7.8
2023-04-14T07:28:25.558Z,7.8
2023-04-14T08:20:16.117Z,7.9
2023-04-14T08:21:17.655Z,7.9
2023-04-14T08:22:19.081Z,7.9
2023-04-14T08:23:20.727Z,7.9
2023-04-14T08:24:22.196Z,7.4
2023-04-14T08:25:23.613Z,7.5
2023-04-14T08:26:25.175Z,7.6
2023-04-14T08:27:26.789Z,7.7
2023-04-14T08:28:28.358Z,7.8
2023-04-14T08:29:30.028Z,7.9
2023-04-14T08:30:31.911Z,7.2
2023-04-14T08:31:33.848Z,7.3
2023-04-14T08:32:35.590Z,7.4
2023-04-14T08:33:37.173Z,7.5
2023-04-14T08:34:38.464Z,7.6
2023-04-14T08:39:50.904Z,7.8
2023-04-14T08:40:52.540Z,7.8
2023-04-14T08:41:54.306Z,7.8
2023-04-14T08:42:55.605Z,7.8
2023-04-14T08:43:57.154Z,7.8
2023-04-14T08:44:58.935Z,7.8
2023-04-14T08:46:00.821Z,7.8
2023-04-14T08:47:02.345Z,7.8
2023-04-14T08:48:04.499Z,7.8
2023-04-14T08:49:05.980Z,7.8
2023-04-14T08:50:07.598Z,7.8
2023-04-14T08:51:09.218Z,7.9
2023-04-14T08:52:10.659Z,7.9
2023-04-14T08:53:12.126Z,7.9
2023-04-14T08:54:13.672Z,7.9
2023-04-14T08:55:15.203Z,7.8
2023-04-14T08:56:16.754Z,7.8
2023-04-14T08:57:18.295Z,7.8
2023-04-14T08:58:19.888Z,7.8
2023-04-14T08:59:21.318Z,7.7
2023-04-14T09:00:23.071Z,7.7
2023-04-14T09:01:25.096Z,7.6
2023-04-14T09:02:27.667Z,7.4
2023-04-14T09:07:37.873Z,7.1
2023-04-14T09:08:39.488Z,7.1
2023-04-14T09:09:40.925Z,7.1
2023-04-14T09:10:42.459Z,7.1
2023-04-14T09:11:44.038Z,7.1
2023-04-14T09:12:45.514Z,7.1
2023-04-14T09:13:47.050Z,7.1
2023-04-14T09:14:48.469Z,7.1
2023-04-14T09:15:50.077Z,7.1
2023-04-14T09:16:52.018Z,7.1
2023-04-14T09:17:54.113Z,7.1
2023-04-14T09:18:55.753Z,7.1
2023-04-14T13:21:31.509Z,7.6
2023-04-14T13:22:32.920Z,7.8
2023-04-14T13:23:34.503Z,7.9
2023-04-14T13:24:36.139Z,7.9
2023-04-14T13:25:37.660Z,7.8
2023-04-14T13:26:39.093Z,7.9
2023-04-14T13:27:40.503Z,7.9
2023-04-14T13:28:42.128Z,7.9
2023-04-14T13:29:43.923Z,7.9
2023-04-14T13:30:45.458Z,7.8
2023-04-14T13:31:47.264Z,7.8
2023-04-14T13:32:49.026Z,7.8
2023-04-14T13:33:50.486Z,7.8
2023-04-14T13:34:53.893Z,7.8
2023-04-14T13:35:55.657Z,7.8
2023-04-14T13:36:57.363Z,7.7
2023-04-14T13:37:58.923Z,7.7
2023-04-14T13:41:05.334Z,7.6
2023-04-14T13:42:06.970Z,7.5
2023-04-14T13:43:08.410Z,7.4
2023-04-14T13:44:09.830Z,7.4
2023-04-14T13:45:11.368Z,7.3
2023-04-14T13:46:13.062Z,7.3
2023-04-14T13:47:14.642Z,7.3
2023-04-14T13:48:16.277Z,7.3
2023-04-14T13:49:17.817Z,7.2
2023-04-14T13:50:19.476Z,7.2
2023-04-14T13:51:21.026Z,7.2
2023-04-14T13:52:22.461Z,7.2
2023-04-14T13:53:23.939Z,7.2
2023-04-14T13:54:25.592Z,7.2
2023-04-14T13:55:27.088Z,7.2
2023-04-14T13:56:28.710Z,7.2
2023-04-14T13:57:30.180Z,7.2
2023-04-14T13:58:31.742Z,7.2
2023-04-14T13:59:33.523Z,7.3
2023-04-14T14:00:35.159Z,7.3
2023-04-14T14:01:37.040Z,7.3
2023-04-14T14:02:39.388Z,7.4
2023-04-14T14:07:49.741Z,7.4
2023-04-14T14:08:51.124Z,7.3
2023-04-14T14:09:52.590Z,7.3
2023-04-14T14:10:54.170Z,7.2
2023-04-14T14:11:55.620Z,7.2
2023-04-14T14:12:57.175Z,7.2
2023-04-14T14:13:58.757Z,7.2
2023-04-14T14:15:00.487Z,7.1
2023-04-14T14:16:02.428Z,7.1
2023-04-14T14:17:04.239Z,7.1
2023-04-14T14:18:06.019Z,7.1
2023-04-14T14:19:07.590Z,7.1
2023-04-14T14:20:09.674Z,7.1
2023-04-14T14:21:11.299Z,7.1
2023-04-14T14:22:12.819Z,7.1
2023-04-14T14:23:14.374Z,7.1
2023-04-14T14:24:15.967Z,7.1
2023-04-14T14:30:30.681Z,7.2
2023-04-14T14:31:32.596Z,7.2
2023-04-14T14:33:36.079Z,7.2
2023-04-14T14:37:42.889Z,7.2
2023-04-14T14:38:44.426Z,7.2
2023-04-14T14:39:45.966Z,7.2
2023-04-14T14:40:47.583Z,7.2
2023-04-14T14:41:49.173Z,7.2
2023-04-14T14:42:50.644Z,7.3
2023-04-14T14:43:52.240Z,7.3
2023-04-14T14:44:53.810Z,7.3
2023-04-14T14:45:55.845Z,7.4
2023-04-14T14:46:58.197Z,7.4
2023-04-14T14:48:00.247Z,7.4
2023-04-14T14:49:01.897Z,7.5
2023-04-14T14:56:19.428Z,7.8
2023-04-14T14:57:21.002Z,7.9
2023-04-14T14:58:22.539Z,7.9
2023-04-14T14:59:23.946Z,7.9
2023-04-14T15:00:25.359Z,7.9
2023-04-14T15:01:26.962Z,7.9
2023-04-14T15:02:29.483Z,7.9
2023-04-14T15:09:42.964Z,7.9
2023-04-14T15:10:44.499Z,7.9
2023-04-14T15:11:45.920Z,7.9
2023-04-14T15:12:47.578Z,7.9
2023-04-14T15:13:48.976Z,7.9
2023-04-14T15:14:50.411Z,7.9
2023-04-14T15:15:51.931Z,7.9
2023-04-14T15:16:53.466Z,7.9
2023-04-14T15:17:55.289Z,7.9
2023-04-14T15:18:56.904Z,7.9
2023-04-14T15:19:58.413Z,7.9
2023-04-14T15:20:59.898Z,7.9
2023-04-14T15:22:01.308Z,7.9
2023-04-14T15:23:03.032Z,7.9
2023-04-14T15:24:05.587Z,7.9
2023-04-14T15:25:06.969Z,7.9
2023-04-14T15:26:08.493Z,7.8
2023-04-14T15:27:10.084Z,7.8
2023-04-14T15:28:11.721Z,7.7
2023-04-14T15:29:13.263Z,7.7
2023-04-14T15:30:14.786Z,7.6
2023-04-14T15:31:16.343Z,7.4
2023-04-14T15:32:18.099Z,7.3
2023-04-14T15:33:19.715Z,7.1
2023-04-14T15:34:21.296Z,7.1
2023-04-14T15:35:22.849Z,7.1
2023-04-14T15:36:24.378Z,7.1
2023-04-14T15:37:25.728Z,7.1
2023-04-14T15:38:27.245Z,7.1
2023-04-14T15:39:28.525Z,7.1
2023-04-14T15:40:30.063Z,7.1
2023-04-14T15:41:31.190Z,7.1
2023-04-14T15:42:32.514Z,7.1
2023-04-14T15:43:34.091Z,7.1
2023-04-14T15:44:35.480Z,7.1
2023-04-14T15:45:37.297Z,7.1
2023-04-14T15:46:38.776Z,7.1
2023-04-14T15:47:40.506Z,7.2
2023-04-14T15:48:42.014Z,7.1
2023-04-14T16:27:10.326Z,7.5
2023-04-14T16:28:11.878Z,7.7
2023-04-14T16:29:13.496Z,7.8
2023-04-14T16:30:15.128Z,7.8
2023-04-14T16:31:16.968Z,7.9
2023-04-14T16:32:18.492Z,7.9
2023-04-14T16:33:19.910Z,7.9
2023-04-14T16:34:21.256Z,7.9
2023-04-14T16:35:22.814Z,7.9
2023-04-14T16:36:24.323Z,7.9
2023-04-14T16:37:25.900Z,7.9
2023-04-14T16:38:27.364Z,7.9
2023-04-14T16:40:33.295Z,7.9
2023-04-14T16:41:34.850Z,7.9
2023-04-14T16:42:36.317Z,7.9
2023-04-14T16:43:37.856Z,7.9
2023-04-14T16:44:39.327Z,7.9
2023-04-14T16:45:40.920Z,7.9
2023-04-14T16:46:42.723Z,7.9
2023-04-14T16:47:44.561Z,7.9
2023-04-14T16:48:46.097Z,7.9
2023-04-14T16:49:47.502Z,7.9
2023-04-14T16:50:49.121Z,7.9
2023-04-14T16:51:50.462Z,7.9
2023-04-14T16:52:51.958Z,7.9
2023-04-14T16:53:53.310Z,7.9
2023-04-14T16:54:55.854Z,7.8
2023-04-14T16:55:57.203Z,7.8
2023-04-14T16:56:58.703Z,7.8
2023-04-14T16:58:00.140Z,7.8
2023-04-14T16:59:03.320Z,7.8
2023-04-14T17:00:05.076Z,7.8
2023-04-14T17:08:21.345Z,7.9
2023-04-14T17:09:22.901Z,7.8
2023-04-14T17:10:24.311Z,7.8
2023-04-14T17:11:25.776Z,7.7
2023-04-14T17:12:27.283Z,7.6
2023-04-14T17:13:28.841Z,7.4
2023-04-14T17:14:30.352Z,7.3
2023-04-14T17:15:31.927Z,7.2
2023-04-14T17:16:33.780Z,7.1
2023-04-14T17:17:35.627Z,7.1
2023-04-14T17:18:37.241Z,7.1
2023-04-14T17:19:38.643Z,7.1
2023-04-14T17:20:40.018Z,7.1
2023-04-14T17:21:41.776Z,7.1
2023-04-14T17:22:43.308Z,7.2
2023-04-14T17:23:44.809Z,7.1
2023-04-14T17:24:46.399Z,7.1
2023-04-14T17:25:47.975Z,7.1
2023-04-14T17:26:49.511Z,7.1
2023-04-14T17:27:51.073Z,7.1
2023-04-14T17:28:52.666Z,7.1
2023-04-14T17:29:54.062Z,7.1
2023-04-14T17:30:55.663Z,7.1
2023-04-14T17:31:57.773Z,7.1
2023-04-14T17:32:59.601Z,7.1
2023-04-14T17:34:03.460Z,7.1
2023-04-14T17:35:05.112Z,7.2
2023-04-14T17:36:06.508Z,7.1
2023-04-14T17:37:07.848Z,7.2
2023-04-14T17:38:09.257Z,7.2
2023-04-14T17:39:10.784Z,7.2
2023-04-14T17:40:12.331Z,7.2
2023-04-14T17:41:14.652Z,7.2
2023-04-14T17:42:15.920Z,7.2
2023-04-14T17:43:17.483Z,7.2
2023-04-14T17:44:18.852Z,7.2
2023-04-14T17:45:20.252Z,7.2
2023-04-14T17:46:22.433Z,7.3
2023-04-14T17:47:24.289Z,7.3
2023-04-14T17:48:25.849Z,7.3
2023-04-14T17:49:27.396Z,7.4
2023-04-14T17:50:28.943Z,7.4
2023-04-14T17:51:30.495Z,7.5
2023-04-14T17:52:32.036Z,7.5
2023-04-14T17:53:33.600Z,7.5
2023-04-14T17:54:35.108Z,7.6
2023-04-14T17:55:36.607Z,7.7
2023-04-14T17:56:38.077Z,7.7
2023-04-14T17:57:39.544Z,7.8
2023-04-14T17:58:41.024Z,7.8
2023-04-14T17:59:42.595Z,7.9
2023-04-14T18:00:43.987Z,7.9
2023-04-14T18:01:46.438Z,7.9
2023-04-14T18:02:48.746Z,7.9
2023-04-14T18:03:50.656Z,7.9
2023-04-14T18:04:52.250Z,7.9
2023-04-14T18:05:53.499Z,7.9
2023-04-14T18:06:55.052Z,7.9
2023-04-14T18:07:56.646Z,7.9
2023-04-14T18:08:58.167Z,7.2
2023-04-14T18:09:59.691Z,7.4
2023-04-14T18:11:01.147Z,7.6
2023-04-14T18:12:02.549Z,7.7
2023-04-14T18:13:04.316Z,7.8
2023-04-14T18:14:06.021Z,7.9
2023-04-14T18:15:07.528Z,7.6
2023-04-14T18:16:11.837Z,7.7
2023-04-14T18:17:13.668Z,7.8
2023-04-14T18:18:15.258Z,7.9
2023-04-14T18:19:16.773Z,7.9
2023-04-14T18:20:18.175Z,7.9
2023-04-14T18:21:19.661Z,7.9
2023-04-14T18:22:21.025Z,7.7
2023-04-14T18:23:22.418Z,7.8
2023-04-14T21:15:58.297Z,7.7
2023-04-14T22:04:39.351Z,7.9
2023-04-14T22:05:40.915Z,7.9
2023-04-14T22:06:42.475Z,7.9
2023-04-14T22:07:43.875Z,7.9
2023-04-14T22:08:45.406Z,7.9
2023-04-14T22:09:47.003Z,7.9
2023-04-14T22:10:48.609Z,7.9
2023-04-14T22:11:50.437Z,7.9
2023-04-14T22:12:52.039Z,7.9
2023-04-14T22:13:53.475Z,7.9
2023-04-14T22:14:54.983Z,7.9
2023-04-14T22:15:56.515Z,7.9
2023-04-14T22:16:58.142Z,7.9
2023-04-14T22:17:59.975Z,7.9
2023-04-14T22:19:03.631Z,7.9
2023-04-14T22:20:05.229Z,7.9
2023-04-14T22:21:06.564Z,7.9
2023-04-14T22:22:08.106Z,7.9
2023-04-14T22:23:09.570Z,7.9
2023-04-14T22:24:11.068Z,7.9
2023-04-14T22:25:12.576Z,7.9
2023-04-14T22:26:14.189Z,7.9
2023-04-14T22:27:15.737Z,7.9
2023-04-14T22:28:17.275Z,7.9
2023-04-14T22:29:18.826Z,7.9
2023-04-14T22:30:20.225Z,7.9
2023-04-14T22:31:22.158Z,7.9
2023-04-14T22:32:24.021Z,7.9
2023-04-14T22:33:25.832Z,7.9
2023-04-14T22:34:27.373Z,7.9
2023-04-14T22:35:28.837Z,7.9
2023-04-14T22:36:30.224Z,7.9
2023-04-14T22:37:31.637Z,7.9
2023-04-14T22:38:33.160Z,7.9
2023-04-14T22:39:34.706Z,7.9
2023-04-14T22:40:36.140Z,7.9
2023-04-14T22:41:37.615Z,7.9
2023-04-14T22:42:38.986Z,7.9
2023-04-14T22:43:40.420Z,7.9
2023-04-14T22:44:41.974Z,7.9
2023-04-14T22:45:43.519Z,7.4
2023-04-14T22:46:45.627Z,7.5
2023-04-14T22:47:47.527Z,7.6
2023-04-14T22:48:49.062Z,7.8
2023-04-14T22:49:50.623Z,7.9
2023-04-14T22:50:52.203Z,7.8
2023-04-14T22:51:53.475Z,7.9
2023-04-14T22:52:54.885Z,7.9
2023-04-14T22:53:56.380Z,7.9
2023-04-14T22:54:57.891Z,7.9
2023-04-14T22:55:59.512Z,7.9
2023-04-14T22:57:01.061Z,7.9
2023-04-14T22:58:02.493Z,7.9
2023-04-14T22:59:05.753Z,7.9
2023-04-14T23:00:07.227Z,7.9
2023-04-14T23:09:36.165Z,7.9
2023-04-14T23:10:37.605Z,7.8
2023-04-14T23:11:39.061Z,7.8
2023-04-14T23:12:40.646Z,7.8
2023-04-14T23:13:42.192Z,7.8
2023-04-14T23:14:43.822Z,7.8
2023-04-14T23:15:45.578Z,7.8
2023-04-14T23:16:47.151Z,7.8
2023-04-14T23:17:49.032Z,7.7
2023-04-14T23:18:50.483Z,7.7
2023-04-14T23:19:51.931Z,7.7
2023-04-14T23:20:53.379Z,7.7
2023-04-14T23:21:54.744Z,7.7
2023-04-14T23:22:56.313Z,7.8
2023-04-14T23:23:57.846Z,7.8
2023-04-14T23:24:59.453Z,7.8
2023-04-14T23:26:00.927Z,7.8
2023-04-14T23:27:02.532Z,7.8
2023-04-14T23:28:04.138Z,7.8
2023-04-14T23:29:06.151Z,7.8
2023-04-14T23:30:07.726Z,7.8
2023-04-14T23:31:09.700Z,7.8
2023-04-14T23:32:11.150Z,7.7
2023-04-14T23:33:12.680Z,7.7
2023-04-14T23:34:14.100Z,7.7
2023-04-14T23:35:15.658Z,7.7
2023-04-14T23:36:17.296Z,7.7
2023-04-14T23:37:18.801Z,7.7
2023-04-14T23:38:20.922Z,7.7
2023-04-14T23:39:22.405Z,7.7
2023-04-14T23:40:23.970Z,7.7
2023-04-14T23:41:25.337Z,7.7
2023-04-14T23:42:26.951Z,7.7
2023-04-14T23:43:28.451Z,7.7
2023-04-14T23:44:29.996Z,7.6
2023-04-14T23:45:31.462Z,7.6
2023-04-14T23:46:33.315Z,7.6
2023-04-14T23:47:35.114Z,7.5
2023-04-14T23:48:36.654Z,7.4
2023-04-14T23:49:38.396Z,7.4
